Time;durP1;ratioP1;P1;durP2;ratioP2;P2;SDS_P1;SDS_P2;PMS_P1;PMS_P2;Temp;Humidity;BMP_temperature;BMP_pressure;BME280_temperature;BME280_humidity;BME280_pressure;Samples;Min_cycle;Max_cycle;Signal;HPM_P1;HPM_P2
2023/01/03 00:00:35;;;;;;;11.07;2.65;;;6.90;99.90;;;5.39;100.00;101540.38;5017128;28;20060;-87
2023/01/03 00:03:08;;;;;;;13.48;2.28;;;6.90;99.90;;;5.42;100.00;101545.56;5013564;28;20021;-86
2023/01/03 00:05:38;;;;;;;16.90;2.60;;;6.90;99.90;;;5.43;100.00;101552.50;5015906;28;20028;-87
2023/01/03 00:08:04;;;;;;;14.60;2.45;;;6.90;99.90;;;5.39;100.00;101550.81;5014588;28;20512;-86
2023/01/03 00:10:35;;;;;;;16.83;2.63;;;6.90;99.90;;;5.42;100.00;101553.41;5019292;28;20032;-87
2023/01/03 00:13:02;;;;;;;18.02;2.35;;;;;;;5.46;100.00;101560.28;5007561;28;20473;-87
2023/01/03 00:15:28;;;;;;;13.57;2.88;;;6.90;99.90;;;5.43;100.00;101554.25;5035728;28;20028;-87
2023/01/03 00:17:55;;;;;;;13.05;2.40;;;6.90;99.90;;;5.44;100.00;101555.97;5035712;28;20086;-86
2023/01/03 00:20:29;;;;;;;9.43;2.15;;;6.90;99.90;;;5.47;100.00;101566.41;5026335;28;20477;-86
2023/01/03 00:22:58;;;;;;;17.45;2.60;;;6.90;99.90;;;5.42;100.00;101566.47;5032966;28;20078;-87
2023/01/03 00:25:32;;;;;;;13.30;2.50;;;;;;;5.42;100.00;101576.91;5019598;28;20029;-87
2023/01/03 00:27:58;;;;;;;15.75;2.83;;;;;;;5.41;100.00;101585.63;5032846;28;20401;-84
2023/01/03 00:30:24;;;;;;;13.85;2.38;;;;;;;5.48;100.00;101591.63;5035507;28;20923;-86
2023/01/03 00:32:50;;;;;;;11.82;2.13;;;7.00;99.90;;;5.53;100.00;101585.47;5034200;28;20056;-86
2023/01/03 00:35:16;;;;;;;11.80;2.03;;;7.00;99.90;;;5.65;100.00;101594.03;5016990;28;20544;-87
2023/01/03 00:37:49;;;;;;;14.52;2.22;;;7.10;99.90;;;5.78;100.00;101607.81;5008894;28;20079;-86
2023/01/03 00:40:15;;;;;;;10.57;2.20;;;7.20;99.90;;;5.83;100.00;101598.16;5015611;28;20021;-85
2023/01/03 00:45:33;;;;;;;14.43;2.38;;;;;;;5.87;100.00;101605.94;5037372;28;20095;-86
2023/01/03 00:47:59;;;;;;;16.50;2.42;;;7.30;99.90;;;5.84;100.00;101602.53;5034108;28;20032;-86
2023/01/03 00:50:25;;;;;;;16.92;2.30;;;7.30;99.90;;;5.83;100.00;101608.63;5018933;28;20029;-87
2023/01/03 00:52:51;;;;;;;13.25;2.22;;;7.30;99.90;;;5.78;100.00;101603.44;5018539;28;20488;-86
2023/01/03 00:55:40;;;;;;;9.85;2.40;;;7.20;99.90;;;5.78;100.00;101606.06;5013674;28;20055;-87
2023/01/03 00:58:06;;;;;;;20.58;2.45;;;7.20;99.90;;;5.79;100.00;101612.16;5010778;28;20092;-87
2023/01/03 01:00:34;;;;;;;13.18;2.35;;;7.30;99.90;;;5.75;100.00;101614.81;5018175;28;20433;-87
2023/01/03 01:03:05;;;;;;;10.23;2.17;;;7.20;99.90;;;5.73;100.00;101619.19;5017325;28;20090;-88
2023/01/03 01:05:37;;;;;;;13.75;2.08;;;;;;;5.66;100.00;101620.16;5018122;28;20509;-86
2023/01/03 01:08:03;;;;;;;18.25;1.95;;;;;;;5.59;100.00;101615.00;5031739;28;20036;-87
2023/01/03 01:11:05;;;;;;;17.20;2.20;;;;;;;5.47;100.00;101629.94;5029561;28;20043;-86
2023/01/03 01:13:49;;;;;;;9.27;2.20;;;7.00;99.90;;;5.38;100.00;101630.06;5022383;28;20040;-89
2023/01/03 01:16:28;;;;;;;21.63;2.75;;;6.90;99.90;;;5.35;100.00;101638.75;5016551;28;20510;-86
2023/01/03 01:18:59;;;;;;;12.43;2.90;;;6.90;99.90;;;5.39;100.00;101644.84;5029019;28;20104;-87
2023/01/03 01:21:31;;;;;;;11.90;2.13;;;;;;;5.50;100.00;101649.94;5018171;28;20695;-88
2023/01/03 01:23:59;;;;;;;8.95;1.80;;;6.90;99.90;;;5.57;100.00;101658.56;5033262;28;20033;-86
2023/01/03 01:26:27;;;;;;;9.70;2.20;;;;;;;5.62;100.00;101656.81;5013978;28;20474;-88
2023/01/03 01:29:01;;;;;;;14.90;2.40;;;7.00;99.90;;;5.58;100.00;101662.94;5032153;28;20052;-87
2023/01/03 01:31:27;;;;;;;10.90;2.20;;;;;;;5.59;100.00;101662.91;5034159;28;20400;-87
2023/01/03 01:33:55;;;;;;;15.60;2.22;;;;;;;5.60;99.75;101671.63;5020662;28;20485;-87
2023/01/03 01:36:33;;;;;;;15.20;2.20;;;7.00;99.90;;;5.60;99.66;101674.25;5049310;28;20029;-88
2023/01/03 01:39:52;;;;;;;;;;;;;;;;;;;;;
2023/01/03 01:45:17;;;;;;;14.85;2.45;;;7.10;99.90;;;5.69;100.00;101690.66;5029631;28;20040;-87
2023/01/03 01:47:55;;;;;;;12.05;1.83;;;7.10;99.90;;;5.74;100.00;101693.22;5018575;28;20032;-86
2023/01/03 01:50:42;;;;;;;14.85;2.17;;;7.10;99.90;;;5.74;99.75;101693.22;5030064;28;20029;-89
2023/01/03 01:53:31;;;;;;;13.13;2.20;;;7.10;99.90;;;5.67;99.09;101694.19;5034747;28;20053;-88
2023/01/03 01:56:29;;;;;;;14.82;2.40;;;7.10;99.90;;;5.55;99.01;101700.41;5034898;28;20042;-86
2023/01/03 01:58:58;;;;;;;10.40;2.08;;;7.00;99.90;;;5.44;99.33;101690.06;5053790;28;20072;-87
2023/01/03 02:01:24;;;;;;;12.95;2.10;;;7.00;99.90;;;5.50;99.77;101705.66;5012804;28;20050;-87
2023/01/03 02:04:14;;;;;;;;;;;;;;;;;;;;;
2023/01/03 02:06:41;;;;;;;11.50;1.98;;;7.00;99.90;;;5.59;100.00;101702.09;5053165;28;20138;-86
2023/01/03 02:09:07;;;;;;;11.80;1.77;;;7.00;99.90;;;5.62;100.00;101706.44;5019829;28;20116;-87
2023/01/03 02:15:07;;;;;;;11.05;1.77;;;7.10;99.90;;;5.62;99.18;101709.06;5034815;28;20433;-86
2023/01/03 02:17:53;;;;;;;12.57;1.92;;;7.00;99.90;;;5.63;98.53;101710.78;5035686;28;20025;-86
2023/01/03 02:21:15;;;;;;;13.90;1.95;;;7.10;99.90;;;5.59;98.26;101717.78;5037498;28;20053;-85
2023/01/03 02:24:30;;;;;;;13.80;1.77;;;7.00;99.90;;;5.47;98.19;101717.91;5029031;28;20033;-86
2023/01/03 02:27:14;;;;;;;14.57;1.80;;;6.90;99.90;;;5.34;98.19;101719.78;5031835;28;20085;-86
2023/01/03 02:30:09;;;;;;;15.07;2.15;;;6.80;99.90;;;5.31;98.61;101719.78;5034162;28;20033;-88
2023/01/03 02:33:20;;;;;;;9.95;1.58;;;6.80;99.90;;;5.28;98.90;101725.03;5036331;28;20029;-87
2023/01/03 02:36:28;;;;;;;14.23;2.05;;;;;;;5.24;99.11;101734.63;5001941;28;20570;-86
2023/01/03 02:39:41;;;;;;;;;;;6.80;99.90;;;5.13;99.04;101728.63;4970782;28;20048;-86
2023/01/03 02:45:47;;;;;;;16.83;1.63;;;6.60;99.90;;;5.02;98.82;101738.31;5034537;28;20086;-87
2023/01/03 02:48:34;;;;;;;15.75;1.65;;;6.50;99.90;;;4.86;98.88;101740.13;5032394;28;20041;-88
2023/01/03 02:51:32;;;;;;;12.93;1.90;;;6.40;99.90;;;4.83;99.58;101751.47;5032757;28;20033;-88
2023/01/03 02:54:09;;;;;;;14.90;1.98;;;6.30;99.90;;;4.75;99.66;101742.81;5021336;28;20394;-87
2023/01/03 02:57:18;;;;;;;17.33;2.20;;;6.30;99.90;;;4.69;99.99;101750.72;5014086;28;20060;-87
2023/01/03 03:03:05;;;;;;;12.40;1.95;;;;;;;4.59;100.00;101742.06;5029965;28;20048;-89
2023/01/03 03:05:51;;;;;;;13.50;1.75;;;6.10;99.90;;;4.56;100.00;101736.88;5031381;28;20448;-87
2023/01/03 03:08:17;;;;;;;14.93;2.08;;;6.00;99.90;;;4.49;100.00;101737.75;5021229;28;20117;-87
2023/01/03 03:13:45;;;;;;;13.07;2.08;;;;;;;4.43;100.00;101730.00;5033390;28;20068;-86
2023/01/03 03:16:47;;;;;;;12.45;2.17;;;6.00;99.90;;;4.41;100.00;101735.19;5035105;28;20024;-87
2023/01/03 03:26:05;;;;;;;14.98;1.83;;;5.90;99.90;;;4.28;100.00;101733.53;5052729;28;20074;-86
2023/01/03 03:28:45;;;;;;;10.13;2.13;;;5.80;99.90;;;4.28;100.00;101734.38;5013896;28;20017;-84
2023/01/03 03:31:42;;;;;;;17.15;2.17;;;5.80;99.90;;;4.28;100.00;101737.00;5018940;28;20021;-84
2023/01/03 03:34:36;;;;;;;16.13;2.55;;;5.80;99.90;;;4.26;100.00;101733.53;5027776;23;20523;-85
2023/01/03 03:37:18;;;;;;;16.85;2.00;;;5.80;99.90;;;4.24;100.00;101737.88;5016506;28;20033;-87
2023/01/03 03:45:48;;;;;;;24.23;2.15;;;5.80;99.90;;;4.16;100.00;101739.66;5035310;28;19915;-86
2023/01/03 03:51:42;;;;;;;14.80;1.95;;;5.70;99.90;;;4.14;100.00;101751.81;5042080;28;20044;-87
2023/01/03 03:54:16;;;;;;;21.60;2.35;;;5.70;99.90;;;4.12;100.00;101756.16;5012093;28;20087;-85
2023/01/03 03:59:10;;;;;;;13.82;1.90;;;5.60;99.90;;;4.07;100.00;101756.19;5072289;28;20044;-88
2023/01/03 04:01:48;;;;;;;12.40;2.00;;;5.70;99.90;;;4.07;100.00;101758.78;5045977;28;20060;-85
2023/01/03 04:04:26;;;;;;;14.85;2.22;;;5.60;99.90;;;4.07;100.00;101770.97;5037698;28;20100;-88
2023/01/03 04:06:53;;;;;;;23.00;1.80;;;;;;;4.06;100.00;101770.09;5035751;28;21413;-86
2023/01/03 04:09:19;;;;;;;14.27;1.90;;;5.60;99.90;;;4.04;100.00;101770.94;5047494;28;20430;-86
2023/01/03 04:11:44;;;;;;;17.98;2.08;;;5.60;99.90;;;4.06;100.00;101767.50;5033119;28;20477;-86
2023/01/03 04:14:10;;;;;;;12.50;1.60;;;5.60;99.90;;;4.05;100.00;101778.78;5027964;28;20043;-87
2023/01/03 04:16:44;;;;;;;15.55;2.28;;;;;;;4.05;100.00;101784.00;5031444;28;20501;-87
2023/01/03 04:19:10;;;;;;;15.68;2.00;;;5.60;99.90;;;4.05;100.00;101786.59;5054199;28;20043;-84
2023/01/03 04:21:36;;;;;;;15.38;2.22;;;;;;;4.10;100.00;101789.19;5038756;28;20044;-87
2023/01/03 04:24:30;;;;;;;15.35;1.80;;;5.70;99.90;;;4.10;100.00;101797.00;5051296;28;20420;-86
2023/01/03 04:26:56;;;;;;;13.98;1.83;;;5.60;99.90;;;4.14;100.00;101800.47;5039165;28;20231;-86
2023/01/03 04:29:21;;;;;;;10.80;1.83;;;5.70;99.90;;;4.15;100.00;101810.03;5037831;28;20392;-84
2023/01/03 04:31:48;;;;;;;18.50;2.53;;;;;;;4.18;100.00;101810.88;5037988;28;20020;-87
2023/01/03 04:34:37;;;;;;;16.58;1.70;;;5.70;99.90;;;4.26;100.00;101819.56;5055417;28;20048;-85
2023/01/03 04:37:05;;;;;;;15.43;1.85;;;5.80;99.90;;;4.34;100.00;101821.28;5025510;28;20021;-87
2023/01/03 04:39:31;;;;;;;13.48;1.90;;;5.80;99.90;;;4.39;100.00;101820.41;5054015;28;20029;-89
2023/01/03 04:42:07;;;;;;;;;;;;;;;;;;;;;
2023/01/03 04:44:35;;;;;;;;;;;6.00;99.90;;;4.48;100.00;101830.78;5057050;28;20024;-87
2023/01/03 04:47:07;;;;;;;13.35;1.88;;;6.00;99.90;;;4.56;100.00;101833.38;5036097;28;19908;-86
2023/01/03 04:49:43;;;;;;;;;;;;;;;;;;;;;
2023/01/03 04:52:17;;;;;;;21.60;2.63;;;;;;;4.70;100.00;101836.78;5054151;28;20144;-87
2023/01/03 04:55:06;;;;;;;29.83;3.40;;;6.20;99.90;;;4.78;100.00;101846.34;5048020;28;20033;-87
2023/01/03 04:57:35;;;;;;;14.13;2.55;;;6.20;99.90;;;4.75;100.00;101851.53;5040256;28;20513;-88
2023/01/03 05:00:02;;;;;;;15.77;1.65;;;6.20;99.90;;;4.77;100.00;101844.56;5040215;28;20175;-86
2023/01/03 05:02:37;;;;;;;13.00;2.20;;;6.30;99.90;;;4.83;100.00;101847.16;5035686;28;20018;-86
2023/01/03 05:05:03;;;;;;;15.27;1.65;;;6.30;99.90;;;4.88;100.00;101850.59;5042913;28;20027;-86
2023/01/03 05:07:29;;;;;;;18.23;2.15;;;6.30;99.90;;;4.86;100.00;101852.34;5036273;28;20041;-86
2023/01/03 05:09:55;;;;;;;13.35;1.90;;;6.30;99.90;;;4.78;100.00;101854.16;5034622;28;20440;-86
2023/01/03 05:12:29;;;;;;;14.77;2.17;;;;;;;4.77;100.00;101860.25;5038627;28;20024;-86
2023/01/03 05:14:57;;;;;;;13.02;2.38;;;6.20;99.90;;;4.68;100.00;101856.78;5063755;28;20485;-87
2023/01/03 05:17:23;;;;;;;14.55;2.15;;;6.20;99.90;;;4.67;100.00;101867.25;5037797;28;20049;-86
2023/01/03 05:25:50;;;;;;;11.57;1.63;;;6.00;99.90;;;4.36;100.00;101861.25;5048779;28;20102;-86
2023/01/03 05:28:26;;;;;;;20.15;2.25;;;5.90;99.90;;;4.28;100.00;101862.16;5041303;28;20116;-86
2023/01/03 05:30:52;;;;;;;18.67;1.80;;;5.80;99.90;;;4.21;100.00;101862.16;5036879;28;20485;-87
2023/01/03 05:33:18;;;;;;;17.90;1.75;;;5.80;99.90;;;4.14;100.00;101865.66;5037043;28;20074;-87
2023/01/03 05:35:47;;;;;;;23.92;2.33;;;5.70;99.90;;;4.06;100.00;101873.47;5040074;28;20021;-88
2023/01/03 05:38:18;;;;;;;20.98;2.10;;;5.60;99.90;;;4.01;100.00;101880.44;5031204;28;20025;-87
2023/01/03 05:40:44;;;;;;;16.92;2.10;;;5.60;99.90;;;3.92;100.00;101865.69;5037123;28;20039;-86
2023/01/03 05:43:14;;;;;;;21.92;2.53;;;5.50;99.90;;;3.82;100.00;101875.25;5038645;28;20052;-87
2023/01/03 05:45:46;;;;;;;21.63;2.47;;;5.40;99.90;;;3.83;100.00;101873.50;5041501;28;20083;-88
2023/01/03 05:48:19;;;;;;;19.30;1.98;;;5.40;99.90;;;3.75;100.00;101881.31;5041846;28;20025;-86
2023/01/03 05:50:53;;;;;;;14.65;2.45;;;;;;;3.70;100.00;101875.25;5037666;28;20119;-89
2023/01/03 05:53:19;;;;;;;16.25;2.05;;;5.30;99.90;;;3.66;100.00;101873.50;5062486;28;20032;-86
2023/01/03 05:55:47;;;;;;;23.52;2.10;;;5.30;99.90;;;3.64;100.00;101876.09;5053336;28;20615;-88
2023/01/03 05:58:36;;;;;;;20.20;2.42;;;;;;;3.61;100.00;101880.47;5033935;28;20064;-88
2023/01/03 06:01:20;;;;;;;16.95;1.92;;;5.20;99.90;;;3.55;100.00;101886.53;5042845;28;20037;-87
2023/01/03 06:03:47;;;;;;;22.77;2.22;;;5.20;99.90;;;3.52;100.00;101889.13;5035602;28;20048;-87
2023/01/03 06:06:20;;;;;;;25.08;2.22;;;;;;;3.48;100.00;101877.84;5033660;28;20039;-88
2023/01/03 06:08:48;;;;;;;21.35;2.20;;;;;;;3.43;100.00;101883.88;5057122;28;20036;-87
2023/01/03 06:11:15;;;;;;;17.10;1.92;;;5.00;99.90;;;3.42;100.00;101888.22;5055061;28;20111;-88
2023/01/03 06:13:49;;;;;;;19.40;2.13;;;5.00;99.90;;;3.40;100.00;101889.97;5038622;28;20087;-89
2023/01/03 06:19:11;;;;;;;18.80;1.85;;;4.90;99.90;;;3.33;100.00;101890.84;5058726;28;20599;-87
2023/01/03 06:21:37;;;;;;;14.35;1.83;;;;;;;3.29;100.00;101902.97;5036226;28;20024;-87
2023/01/03 06:24:13;;;;;;;17.25;1.63;;;4.90;99.90;;;3.23;100.00;101899.47;5052858;28;20048;-88
2023/01/03 06:26:39;;;;;;;13.13;1.88;;;4.80;99.90;;;3.20;100.00;101902.09;5039337;28;20437;-89
2023/01/03 06:29:06;;;;;;;20.40;2.10;;;4.80;99.90;;;3.18;100.00;101909.03;5038197;28;20033;-89
2023/01/03 06:31:32;;;;;;;15.73;2.00;;;;;;;3.13;100.00;101911.56;5035945;28;20035;-87
2023/01/03 06:34:07;;;;;;;19.58;2.70;;;;;;;3.10;100.00;101919.38;5047882;28;20025;-88
2023/01/03 06:36:36;;;;;;;18.33;2.33;;;;;;;3.08;100.00;101924.56;5050315;28;20658;-87
2023/01/03 06:39:07;;;;;;;12.65;1.70;;;4.70;99.90;;;3.03;100.00;101923.72;5048403;28;20071;-86
2023/01/03 06:41:36;;;;;;;17.33;2.15;;;;;;;3.00;100.00;101922.81;5032525;28;20032;-88
2023/01/03 06:44:14;;;;;;;21.35;2.25;;;;;;;2.98;100.00;101925.44;5052624;28;20020;-88
2023/01/03 06:55:10;;;;;;;20.42;2.40;;;4.50;99.90;;;2.90;100.00;101960.09;5059307;28;20546;-88
2023/01/03 06:57:36;;;;;;;10.90;1.95;;;4.50;99.90;;;2.86;100.00;101956.59;5037137;28;20033;-87
2023/01/03 07:00:02;;;;;;;22.58;2.45;;;4.50;99.90;;;2.85;100.00;101954.84;5037872;28;20032;-89
2023/01/03 07:02:37;;;;;;;15.98;2.08;;;;;;;2.86;100.00;101951.38;5029842;28;20656;-87
2023/01/03 07:05:07;;;;;;;14.35;2.00;;;4.50;99.90;;;2.85;100.00;101960.03;5065289;28;20029;-88
2023/01/03 07:07:40;;;;;;;14.38;2.10;;;4.50;99.90;;;2.87;100.00;101963.53;5047236;28;20032;-88
2023/01/03 07:10:06;;;;;;;17.20;2.00;;;4.50;99.90;;;2.87;100.00;101977.41;5031786;28;20039;-86
2023/01/03 07:15:25;;;;;;;18.85;2.42;;;;;;;2.83;100.00;101970.47;5049182;28;20039;-87
2023/01/03 07:17:51;;;;;;;20.52;3.15;;;4.40;99.90;;;2.81;100.00;101979.13;5047413;28;20040;-87
2023/01/03 07:20:17;;;;;;;16.02;2.78;;;4.40;99.90;;;2.79;100.00;101989.50;5036217;28;20073;-89
2023/01/03 07:22:43;;;;;;;12.38;2.40;;;;;;;2.79;100.00;101988.66;5038322;28;20099;-88
2023/01/03 07:25:19;;;;;;;22.63;3.00;;;4.40;99.90;;;2.75;100.00;101989.50;5056815;23;20036;-88
2023/01/03 07:27:55;;;;;;;16.13;2.63;;;;;;;2.76;100.00;101991.22;5051649;28;20547;-87
2023/01/03 07:30:24;;;;;;;19.33;2.33;;;4.40;99.90;;;2.73;100.00;101993.81;5059613;28;20123;-88
2023/01/03 07:32:50;;;;;;;16.63;2.60;;;;;;;2.75;100.00;101994.69;5072425;28;20111;-88
2023/01/03 07:35:24;;;;;;;18.38;3.05;;;4.40;99.90;;;2.76;100.00;102001.63;5060981;28;20060;-88
2023/01/03 07:37:49;;;;;;;14.55;2.63;;;4.30;99.90;;;2.79;100.00;102002.50;5049991;28;20507;-87
2023/01/03 07:40:19;;;;;;;24.02;3.63;;;;;;;2.80;100.00;102009.44;5054210;28;20107;-88
2023/01/03 07:45:38;;;;;;;23.60;3.08;;;4.40;99.90;;;2.81;100.00;102011.19;5070243;28;20503;-88
2023/01/03 07:48:14;;;;;;;12.90;3.33;;;;;;;2.82;100.00;102017.25;5053840;28;20061;-88
2023/01/03 07:50:40;;;;;;;16.25;3.47;;;4.30;99.90;;;2.82;100.00;102014.66;5068173;28;20048;-87
2023/01/03 07:53:08;;;;;;;18.00;4.00;;;;;;;2.82;100.00;102017.25;5040837;28;20028;-88
2023/01/03 07:56:01;;;;;;;17.45;3.60;;;4.40;99.90;;;2.86;100.00;102025.09;5057462;28;20059;-88
2023/01/03 07:58:27;;;;;;;20.90;3.83;;;4.40;99.90;;;2.85;100.00;102027.69;5037468;28;20051;-86
2023/01/03 08:01:22;;;;;;;21.13;3.42;;;4.40;99.90;;;2.88;100.00;102035.53;5043463;28;20041;-87
2023/01/03 08:03:57;;;;;;;22.45;3.60;;;4.40;99.90;;;2.86;100.00;102042.44;5053257;28;20029;-87
2023/01/03 08:06:26;;;;;;;20.27;4.05;;;4.40;99.90;;;2.84;100.00;102039.81;5050148;28;20055;-86
2023/01/03 08:14:26;;;;;;;23.73;3.60;;;4.40;99.90;;;2.92;100.00;102067.63;5063189;28;20079;-87
2023/01/03 08:16:58;;;;;;;28.90;3.97;;;4.40;99.90;;;2.90;100.00;102059.81;5046511;28;20048;-88
2023/01/03 08:19:27;;;;;;;24.50;3.55;;;;;;;2.93;100.00;102075.44;5047357;28;20025;-87
2023/01/03 08:21:53;;;;;;;17.35;3.60;;;4.50;99.90;;;2.95;100.00;102081.50;5063831;28;20036;-88
2023/01/03 08:24:18;;;;;;;23.55;3.92;;;4.50;99.90;;;2.97;100.00;102087.59;5029299;28;20021;-86
2023/01/03 08:26:56;;;;;;;20.05;3.80;;;4.50;99.90;;;3.03;100.00;102094.59;5039510;28;20036;-88
2023/01/03 08:29:22;;;;;;;13.30;3.63;;;4.50;99.90;;;3.10;100.00;102103.31;5047086;28;20024;-87
2023/01/03 08:31:54;;;;;;;14.65;3.22;;;;;;;3.14;100.00;102097.25;5040081;28;20198;-86
2023/01/03 08:34:21;;;;;;;12.85;3.25;;;4.60;99.90;;;3.16;100.00;102088.59;5059310;28;20099;-86
2023/01/03 08:37:02;;;;;;;19.00;3.63;;;4.60;99.90;;;3.17;100.00;102090.31;5051248;28;20484;-87
2023/01/03 08:39:54;;;;;;;27.60;3.42;;;4.70;99.90;;;3.19;100.00;102101.63;5052523;28;20055;-87
2023/01/03 08:42:22;;;;;;;20.23;3.30;;;4.70;99.90;;;3.20;100.00;102105.13;5028959;28;20036;-87
2023/01/03 08:44:58;;;;;;;13.98;3.35;;;4.60;99.90;;;3.18;100.00;102102.50;5043328;28;20504;-86
2023/01/03 08:47:27;;;;;;;19.88;3.58;;;4.70;99.90;;;3.22;100.00;102111.19;5058508;28;20024;-87
2023/01/03 08:50:03;;;;;;;17.20;3.70;;;4.70;99.90;;;3.28;100.00;102111.22;5040788;28;20064;-86
2023/01/03 08:52:29;;;;;;;20.85;4.68;;;4.70;99.90;;;3.33;100.00;102114.72;5032246;28;20498;-85
2023/01/03 08:54:58;;;;;;;23.63;3.85;;;4.70;99.90;;;3.37;100.00;102116.50;5046617;28;20029;-88
2023/01/03 08:57:31;;;;;;;20.10;3.53;;;;;;;3.41;100.00;102120.84;5044144;28;20029;-88
2023/01/03 08:59:57;;;;;;;16.35;3.72;;;;;;;3.49;100.00;102121.75;5047317;28;20033;-87
2023/01/03 09:02:44;;;;;;;17.05;3.50;;;;;;;3.54;100.00;102126.97;5062465;28;20032;-87
2023/01/03 09:05:15;;;;;;;15.82;3.25;;;4.90;99.90;;;3.68;100.00;102140.06;5058824;22;20041;-87
2023/01/03 09:07:42;;;;;;;23.63;3.47;;;5.00;99.90;;;3.84;100.00;102134.03;5024309;28;20029;-89
2023/01/03 09:10:22;;;;;;;16.30;3.50;;;5.20;99.90;;;3.98;100.00;102136.72;5039967;28;20128;-86
2023/01/03 09:13:00;;;;;;;13.80;3.10;;;;;;;4.19;100.00;102135.91;5041712;28;20029;-87
2023/01/03 09:15:26;;;;;;;20.90;2.67;;;5.50;99.90;;;4.31;100.00;102145.50;5038145;28;20041;-87
2023/01/03 09:17:52;;;;;;;10.70;2.85;;;;;;;4.41;100.00;102135.97;5032222;28;20494;-87
2023/01/03 09:20:27;;;;;;;18.10;3.15;;;5.70;99.90;;;4.39;100.00;102137.69;5031994;28;20033;-86
2023/01/03 09:22:53;;;;;;;16.55;3.20;;;5.70;99.90;;;4.31;100.00;102146.34;5023698;28;20041;-87
2023/01/03 09:25:18;;;;;;;13.57;2.80;;;5.70;99.90;;;4.25;100.00;102137.66;5030846;23;20053;-87
2023/01/03 09:27:48;;;;;;;24.15;4.05;;;5.60;99.90;;;4.13;100.00;102141.13;5025438;28;20094;-87
2023/01/03 09:30:20;;;;;;;18.45;2.85;;;5.60;99.90;;;4.04;100.00;102138.47;5036134;28;20037;-88
2023/01/03 09:32:50;;;;;;;22.58;3.28;;;5.50;99.90;;;4.01;100.00;102149.75;5030995;28;20111;-88
2023/01/03 09:35:26;;;;;;;13.05;3.40;;;;;;;3.96;100.00;102153.22;5040112;28;20503;-88
2023/01/03 09:37:55;;;;;;;15.77;2.92;;;;;;;3.97;100.00;102154.94;5048516;28;20032;-87
2023/01/03 09:40:30;;;;;;;16.58;2.83;;;;;;;3.99;100.00;102163.66;5038807;28;20057;-89
2023/01/03 09:43:24;;;;;;;12.88;3.20;;;5.50;99.90;;;4.04;100.00;102156.69;5028650;28;20037;-87
2023/01/03 09:46:04;;;;;;;13.85;2.97;;;5.50;99.90;;;4.09;100.00;102158.47;5036565;28;20033;-86
2023/01/03 09:48:48;;;;;;;14.48;3.38;;;;;;;4.19;100.00;102167.22;5019727;28;20027;-88
2023/01/03 10:04:30;;;;;;;19.27;3.17;;;5.80;99.90;;;4.42;100.00;102192.47;5060302;28;20039;-87
2023/01/03 10:07:56;;;;;;;15.23;3.03;;;5.90;99.90;;;4.57;100.00;102189.88;5037951;28;20061;-88
2023/01/03 10:10:44;;;;;;;16.70;2.85;;;6.10;99.90;;;4.86;100.00;102187.31;5046254;28;20043;-88
2023/01/03 10:13:37;;;;;;;16.40;2.50;;;6.50;99.90;;;5.08;100.00;102185.56;5034000;28;20074;-87
2023/01/03 10:16:28;;;;;;;13.80;2.60;;;;;;;5.35;100.00;102199.47;5034105;28;20033;-88
2023/01/03 10:19:27;;;;;;;19.23;2.90;;;7.10;99.90;;;5.58;98.00;102198.56;5025327;28;20034;-88
2023/01/03 10:22:17;;;;;;;11.35;2.25;;;;;;;5.66;96.27;102199.38;5036852;28;20032;-88
2023/01/03 10:24:45;;;;;;;18.15;2.78;;;;;;;5.79;95.18;102200.22;5022356;28;20061;-87
2023/01/03 10:27:31;;;;;;;9.55;2.60;;;7.20;99.90;;;5.87;94.29;102201.06;5030317;28;20042;-87
2023/01/03 10:30:12;;;;;;;18.42;2.85;;;;;;;5.94;92.97;102203.72;5035616;28;20039;-89
2023/01/03 10:33:34;;;;;;;12.90;2.88;;;7.20;99.90;;;6.03;91.92;102209.78;5037507;28;20028;-87
2023/01/03 10:36:03;;;;;;;13.32;2.92;;;7.30;99.90;;;6.24;91.08;102209.69;5017970;28;20060;-87
2023/01/03 10:38:43;;;;;;;17.27;2.80;;;7.50;99.90;;;6.49;91.20;102225.25;5016643;28;20036;-87
2023/01/03 10:41:35;;;;;;;13.45;2.42;;;;;;;6.72;90.57;102220.75;5022883;28;20040;-87
2023/01/03 10:44:30;;;;;;;12.48;3.08;;;;;;;6.88;89.46;102224.13;5039925;28;20032;-88
2023/01/03 10:47:15;;;;;;;13.82;2.72;;;8.10;99.90;;;7.11;88.38;102223.94;5051008;28;20476;-87
2023/01/03 10:49:49;;;;;;;11.90;2.30;;;;;;;7.30;87.86;102224.66;5044708;28;20050;-87
2023/01/03 10:52:42;;;;;;;10.90;2.70;;;8.40;99.90;;;7.50;87.16;102228.84;5029612;28;20086;-88
2023/01/03 10:55:24;;;;;;;14.63;2.97;;;8.60;99.90;;;7.62;85.66;102223.47;5039938;28;20143;-86
2023/01/03 10:58:08;;;;;;;14.02;2.55;;;8.70;99.90;;;7.71;85.11;102223.38;5027284;28;20025;-88
2023/01/03 11:01:18;;;;;;;12.85;2.58;;;8.80;99.90;;;7.59;83.88;102221.75;5027098;28;20040;-86
2023/01/03 11:03:25;;;;;;;17.83;2.70;;;8.80;99.90;;;7.56;83.72;102211.31;5024017;28;20069;-86
2023/01/03 11:06:03;;;;;;;9.48;2.30;;;8.80;99.90;;;7.62;83.68;102209.50;5030572;28;20028;-88
2023/01/03 11:08:46;;;;;;;16.83;2.65;;;8.80;99.90;;;7.45;82.95;102212.28;5057183;28;20116;-88
2023/01/03 11:11:40;;;;;;;11.98;2.45;;;8.70;99.90;;;7.35;82.33;102211.50;5031639;28;20495;-88
2023/01/03 11:17:37;;;;;;;11.65;2.53;;;8.50;99.90;;;7.14;83.32;102226.53;5058742;22;20041;-82
2023/01/03 11:20:18;;;;;;;16.15;2.58;;;8.50;99.90;;;7.19;83.41;102226.47;5038448;28;20119;-82
2023/01/03 11:22:55;;;;;;;16.45;3.08;;;8.50;99.90;;;7.22;84.22;102225.63;5055084;28;20016;-82
2023/01/03 11:26:01;;;;;;;19.23;2.85;;;8.50;99.90;;;7.18;84.17;102220.38;5056502;28;20039;-80
2023/01/03 11:28:36;;;;;;;12.13;2.70;;;8.50;99.90;;;7.09;83.52;102214.38;5067948;28;20116;-81
2023/01/03 11:31:37;;;;;;;14.80;2.92;;;8.30;99.90;;;6.90;83.52;102222.34;5040079;28;20045;-82
2023/01/03 11:34:52;;;;;;;15.90;2.47;;;8.20;99.90;;;6.73;83.80;102219.00;5064076;28;20060;-81
2023/01/03 11:37:56;;;;;;;14.70;2.75;;;8.10;99.90;;;6.51;84.23;102226.13;5037757;28;20520;-82
2023/01/03 11:41:15;;;;;;;16.33;3.08;;;8.00;99.90;;;6.49;84.86;102220.03;5049047;28;20048;-83
2023/01/03 11:44:24;;;;;;;8.93;2.80;;;7.90;99.90;;;6.52;85.25;102220.00;5035252;28;20045;-81
2023/01/03 11:47:25;;;;;;;10.10;2.30;;;7.80;99.90;;;6.53;85.38;102225.22;5051099;28;20437;-82
2023/01/03 11:50:33;;;;;;;15.75;2.58;;;7.90;99.90;;;6.44;85.16;102219.19;5050923;28;20613;-81
2023/01/03 11:53:15;;;;;;;12.57;2.20;;;7.80;99.90;;;6.39;84.92;102226.16;5052252;28;20087;-81
2023/01/03 11:56:30;;;;;;;14.02;2.92;;;7.80;99.90;;;6.34;85.35;102224.44;5036516;28;20020;-82
2023/01/03 11:59:36;;;;;;;16.48;3.28;;;7.70;99.90;;;6.30;85.91;102214.88;5050574;28;20035;-82
2023/01/03 12:02:50;;;;;;;13.05;2.47;;;7.70;99.90;;;6.31;86.29;102224.47;5050723;28;20034;-82
2023/01/03 12:05:47;;;;;;;15.63;2.70;;;7.70;99.90;;;6.27;85.80;102224.50;5067761;28;20033;-82
2023/01/03 12:08:43;;;;;;;13.27;2.83;;;7.70;99.90;;;6.25;85.53;102228.88;5065253;28;20048;-81
2023/01/03 12:11:46;;;;;;;14.95;3.45;;;7.70;99.90;;;6.25;85.14;102221.88;5067314;28;20024;-80
2023/01/03 12:14:23;;;;;;;8.20;2.50;;;7.60;99.90;;;6.30;85.61;102233.19;5050938;28;20024;-81
2023/01/03 12:17:14;;;;;;;13.32;2.63;;;7.60;99.90;;;6.32;85.55;102223.59;5052321;28;20476;-81
2023/01/03 12:20:17;;;;;;;11.23;2.97;;;7.70;99.90;;;6.35;86.22;102226.19;5050518;28;20036;-80
2023/01/03 12:22:58;;;;;;;12.80;2.53;;;7.70;99.90;;;6.42;86.51;102226.19;5047051;28;20029;-83
2023/01/03 12:25:31;;;;;;;12.85;2.63;;;7.70;99.90;;;6.41;86.27;102230.50;5038748;28;20407;-82
2023/01/03 12:28:25;;;;;;;15.77;3.10;;;7.70;99.90;;;6.45;85.80;102229.63;5028909;28;20032;-82
2023/01/03 12:31:07;;;;;;;10.30;2.85;;;7.80;99.90;;;6.45;85.65;102236.59;5065166;28;20032;-82
2023/01/03 12:33:55;;;;;;;12.27;2.75;;;7.80;99.90;;;6.44;85.34;102224.41;5031619;28;20025;-83
2023/01/03 12:36:33;;;;;;;12.10;2.63;;;7.80;99.90;;;6.48;85.56;102227.00;5067708;28;20497;-82
2023/01/03 12:39:18;;;;;;;11.13;2.78;;;7.80;99.90;;;6.56;85.56;102219.94;5048610;28;20021;-82
2023/01/03 12:42:28;;;;;;;11.70;2.88;;;7.80;99.90;;;6.50;85.27;102225.25;5033045;28;20376;-82